createdAt,value
2023-04-04T00:00:14.826Z,75.87
2023-04-04T00:09:21.843Z,75.44
2023-04-04T00:11:48.563Z,75.10
2023-04-04T00:14:15.114Z,75.88
2023-04-04T00:16:41.441Z,74.25
2023-04-04T00:19:07.750Z,75.90
2023-04-04T00:21:34.099Z,77.13
2023-04-04T00:24:00.390Z,76.16
2023-04-04T00:26:27.271Z,77.32
2023-04-04T00:28:53.720Z,77.99
2023-04-04T00:31:20.984Z,78.78
2023-04-04T00:33:47.368Z,79.44
2023-04-04T00:36:13.843Z,79.29
2023-04-04T00:38:40.220Z,79.28
2023-04-04T00:41:06.678Z,79.36
2023-04-04T00:43:34.786Z,79.65
2023-04-04T00:46:01.269Z,79.85
2023-04-04T00:48:28.497Z,80.32
2023-04-04T00:50:54.876Z,79.26
2023-04-04T00:53:21.501Z,79.21
2023-04-04T00:55:47.929Z,80.10
2023-04-04T00:58:14.356Z,79.86
2023-04-04T01:00:41.468Z,80.08
2023-04-04T01:03:10.361Z,80.78
2023-04-04T01:05:36.747Z,80.87
2023-04-04T01:08:03.425Z,81.86
2023-04-04T01:10:31.138Z,81.27
2023-04-04T01:12:57.792Z,81.32
2023-04-04T01:15:24.187Z,82.33
2023-04-04T01:17:52.893Z,81.11
2023-04-04T01:20:24.675Z,84.19
2023-04-04T01:22:52.891Z,82.46
2023-04-04T01:25:32.563Z,81.92
2023-04-04T01:28:00.263Z,81.75
2023-04-04T01:30:33.909Z,84.04
2023-04-04T01:33:36.609Z,84.97
2023-04-04T01:36:32.375Z,84.73
2023-04-04T01:39:08.218Z,83.69
2023-04-04T01:41:35.345Z,81.28
2023-04-04T01:44:02.897Z,83.22
2023-04-04T01:46:29.712Z,82.16
2023-04-04T01:48:56.025Z,83.90
2023-04-04T01:51:23.802Z,85.22
2023-04-04T01:53:50.217Z,84.11
2023-04-04T01:56:16.623Z,84.33
2023-04-04T01:58:43.389Z,84.77
2023-04-04T02:01:09.796Z,84.16
2023-04-04T02:03:36.575Z,84.76
2023-04-04T02:06:02.976Z,83.11
2023-04-04T02:08:29.470Z,83.89
2023-04-04T02:10:58.521Z,84.28
2023-04-04T02:13:25.020Z,84.86
2023-04-04T02:15:52.310Z,85.28
2023-04-04T02:18:19.262Z,84.62
2023-04-04T02:20:45.627Z,84.45
2023-04-04T02:23:11.996Z,84.34
2023-04-04T02:25:38.405Z,84.10
2023-04-04T02:28:04.710Z,85.31
2023-04-04T02:30:31.119Z,85.01
2023-04-04T02:32:59.208Z,84.87
2023-04-04T02:35:25.765Z,84.96
2023-04-04T02:37:52.168Z,84.95
2023-04-04T02:40:19.088Z,83.95
2023-04-04T02:42:45.737Z,83.41
2023-04-04T02:45:14.266Z,82.64
2023-04-04T02:47:42.544Z,82.99
2023-04-04T02:50:12.061Z,82.13
2023-04-04T02:52:38.490Z,82.00
2023-04-04T02:55:05.983Z,82.76
2023-04-04T02:57:32.402Z,81.98
2023-04-04T02:59:58.789Z,81.78
2023-04-04T03:02:26.002Z,81.16
2023-04-04T03:04:52.763Z,81.13
2023-04-04T03:07:19.074Z,80.86
2023-04-04T03:09:45.482Z,80.09
2023-04-04T03:12:12.273Z,80.54
2023-04-04T03:14:38.617Z,79.73
2023-04-04T03:17:05.315Z,79.85
2023-04-04T03:19:32.100Z,80.32
2023-04-04T03:21:58.736Z,79.01
2023-04-04T03:24:25.373Z,79.06
2023-04-04T03:26:51.711Z,79.46
2023-04-04T03:29:18.392Z,80.36
2023-04-04T03:31:44.770Z,79.93
2023-04-04T03:34:11.631Z,79.32
2023-04-04T03:36:38.030Z,79.78
2023-04-04T03:39:04.449Z,79.82
2023-04-04T03:41:30.942Z,79.93
2023-04-04T03:43:57.313Z,81.19
2023-04-04T03:46:24.365Z,81.31
2023-04-04T03:48:50.837Z,81.34
2023-04-04T03:51:23.600Z,81.44
2023-04-04T03:53:50.077Z,80.69
2023-04-04T03:56:16.704Z,81.53
2023-04-04T03:58:43.128Z,81.52
2023-04-04T04:01:09.433Z,81.28
2023-04-04T04:03:36.043Z,80.99
2023-04-04T04:06:02.728Z,83.12
2023-04-04T04:08:29.097Z,82.28
2023-04-04T04:10:55.663Z,82.84
2023-04-04T04:13:22.113Z,83.03
2023-04-04T04:15:49.309Z,84.09
2023-04-04T04:18:15.741Z,83.28
2023-04-04T04:20:42.260Z,82.60
2023-04-04T04:23:08.801Z,82.04
2023-04-04T04:25:35.258Z,80.70
2023-04-04T04:28:01.617Z,82.23
2023-04-04T04:30:28.198Z,81.56
2023-04-04T04:32:54.566Z,81.09
2023-04-04T04:35:20.947Z,81.66
2023-04-04T04:37:47.356Z,81.54
2023-04-04T04:40:16.371Z,82.04
2023-04-04T04:42:48.814Z,82.04
2023-04-04T04:45:15.371Z,82.73
2023-04-04T04:47:41.915Z,82.52
2023-04-04T04:50:08.729Z,82.34
2023-04-04T04:52:38.978Z,82.79
2023-04-04T04:55:05.876Z,83.08
2023-04-04T04:57:34.199Z,81.95
2023-04-04T05:00:01.300Z,81.96
2023-04-04T05:02:28.306Z,81.85
2023-04-04T05:04:54.801Z,81.29
2023-04-04T05:07:21.175Z,83.48
2023-04-04T05:09:47.561Z,82.54
2023-04-04T05:12:13.966Z,84.51
2023-04-04T05:14:40.296Z,84.16
2023-04-04T05:17:07.056Z,85.21
2023-04-04T05:19:33.560Z,84.24
2023-04-04T05:22:00.001Z,83.96
2023-04-04T05:24:27.498Z,84.26
2023-04-04T05:26:53.828Z,86.07
2023-04-04T05:29:20.175Z,85.11
2023-04-04T05:31:47.243Z,84.63
2023-04-04T05:34:13.737Z,85.26
2023-04-04T05:36:40.165Z,85.77
2023-04-04T05:39:06.583Z,86.22
2023-04-04T05:41:33.610Z,86.67
2023-04-04T05:44:00.045Z,85.57
2023-04-04T05:46:26.981Z,86.49
2023-04-04T05:48:53.282Z,85.80
2023-04-04T05:51:19.577Z,85.36
2023-04-04T05:53:47.559Z,86.00
2023-04-04T05:56:14.140Z,85.68
2023-04-04T05:58:40.526Z,85.29
2023-04-04T06:01:08.888Z,83.81
2023-04-04T06:03:35.416Z,84.27
2023-04-04T06:06:06.226Z,83.87
2023-04-04T06:08:40.090Z,83.41
2023-04-04T06:11:16.872Z,83.37
2023-04-04T06:13:43.237Z,82.60
2023-04-04T06:16:09.656Z,82.36
2023-04-04T06:18:36.089Z,81.38
2023-04-04T06:21:02.476Z,80.90
2023-04-04T06:23:28.784Z,80.22
2023-04-04T06:25:55.567Z,77.11
2023-04-04T06:28:21.891Z,76.15
2023-04-04T06:30:48.745Z,75.92
2023-04-04T06:33:15.104Z,74.89
2023-04-04T06:35:41.419Z,73.63
2023-04-04T06:38:08.562Z,71.35
2023-04-04T06:40:34.897Z,69.71
2023-04-04T06:43:01.823Z,69.91
2023-04-04T06:45:28.536Z,69.09
2023-04-04T06:47:55.643Z,67.42
2023-04-04T06:50:23.012Z,67.07
2023-04-04T06:52:50.099Z,68.23
2023-04-04T06:55:17.728Z,66.97
2023-04-04T06:57:44.279Z,64.09
2023-04-04T07:00:11.380Z,65.21
2023-04-04T07:02:37.872Z,63.24
2023-04-04T07:05:05.506Z,63.59
2023-04-04T07:07:31.939Z,63.95
2023-04-04T07:09:58.325Z,62.06
2023-04-04T07:12:24.809Z,63.19
2023-04-04T07:14:51.503Z,61.80
2023-04-04T07:17:24.776Z,62.05
2023-04-04T07:19:51.777Z,61.26
2023-04-04T07:22:18.299Z,61.59
2023-04-04T07:24:44.957Z,60.51
2023-04-04T07:27:11.558Z,58.48
2023-04-04T07:29:38.041Z,58.25
2023-04-04T07:32:04.528Z,57.76
2023-04-04T07:34:30.899Z,57.68
2023-04-04T07:36:57.252Z,58.99
2023-04-04T07:39:23.628Z,58.85
2023-04-04T07:41:49.916Z,57.83
2023-04-04T07:44:24.923Z,56.58
2023-04-04T07:47:02.554Z,56.41
2023-04-04T07:49:35.399Z,55.63
2023-04-04T07:52:01.735Z,56.86
2023-04-04T07:54:28.230Z,56.24
2023-04-04T07:56:54.543Z,55.03
2023-04-04T07:59:21.328Z,54.26
2023-04-04T08:01:47.895Z,55.94
2023-04-04T08:04:14.213Z,55.22
2023-04-04T08:06:40.536Z,52.70
2023-04-04T08:09:06.882Z,55.17
2023-04-04T08:11:33.291Z,54.09
2023-04-04T08:13:59.675Z,52.68
2023-04-04T08:16:26.444Z,51.82
2023-04-04T08:18:52.868Z,51.78
2023-04-04T08:21:19.163Z,54.37
2023-04-04T08:23:45.456Z,53.34
2023-04-04T08:26:12.194Z,50.36
2023-04-04T08:28:38.830Z,52.08
2023-04-04T08:31:05.619Z,52.35
2023-04-04T08:33:44.584Z,49.27
2023-04-04T08:36:13.464Z,49.64
2023-04-04T08:38:39.862Z,49.36
2023-04-04T08:41:06.779Z,50.17
2023-04-04T08:43:35.569Z,49.20
2023-04-04T08:46:04.159Z,51.39
2023-04-04T08:48:32.356Z,48.32
2023-04-04T08:50:59.646Z,48.77
2023-04-04T08:53:26.803Z,49.08
2023-04-04T08:55:54.869Z,46.69
2023-04-04T08:58:21.230Z,47.52
2023-04-04T09:00:47.675Z,48.39
2023-04-04T09:03:22.945Z,47.43
2023-04-04T09:05:50.366Z,47.04
2023-04-04T09:08:18.521Z,47.07
2023-04-04T09:10:45.962Z,46.31
2023-04-04T09:13:16.016Z,45.32
2023-04-04T09:15:47.226Z,44.59
2023-04-04T09:18:13.513Z,45.52
2023-04-04T09:20:44.933Z,45.18
2023-04-04T09:23:12.657Z,44.77
2023-04-04T09:28:25.045Z,44.54
2023-04-04T09:30:52.356Z,46.44
2023-04-04T09:33:21.707Z,46.41
2023-04-04T09:36:12.894Z,45.34
2023-04-04T09:38:45.261Z,42.78
2023-04-04T09:41:15.341Z,44.08
2023-04-04T09:43:45.070Z,42.28
2023-04-04T09:46:11.633Z,43.49
2023-04-04T09:48:38.010Z,44.23
2023-04-04T09:51:06.238Z,44.12
2023-04-04T09:53:37.212Z,44.12
2023-04-04T09:56:04.013Z,43.17
2023-04-04T09:58:36.253Z,42.20
2023-04-04T10:01:09.636Z,40.91
2023-04-04T10:03:40.557Z,41.86
2023-04-04T10:06:08.038Z,42.30
2023-04-04T10:08:35.329Z,41.97
2023-04-04T10:11:10.539Z,42.24
2023-04-04T10:13:44.399Z,41.94
2023-04-04T10:16:11.842Z,40.89
2023-04-04T10:18:39.407Z,42.49
2023-04-04T10:23:38.858Z,40.77
2023-04-04T11:13:18.164Z,35.83
2023-04-04T11:16:08.163Z,36.02
2023-04-04T11:18:41.500Z,34.94
2023-04-04T11:21:14.540Z,35.58
2023-04-04T11:23:50.413Z,36.43
2023-04-04T11:26:26.534Z,36.74
2023-04-04T11:28:57.080Z,36.23
2023-04-04T11:31:26.068Z,34.65
2023-04-04T11:34:03.858Z,34.62
2023-04-04T11:36:36.234Z,34.26
2023-04-04T11:39:10.007Z,36.09
2023-04-04T11:42:14.139Z,37.68
2023-04-04T11:44:41.715Z,36.59
2023-04-04T11:47:09.329Z,34.74
2023-04-04T11:49:41.571Z,34.88
2023-04-04T11:52:10.712Z,34.28
2023-04-04T11:54:38.770Z,35.20
2023-04-04T11:57:06.827Z,36.16
2023-04-04T11:59:33.269Z,35.21
2023-04-04T12:02:00.321Z,34.52
2023-04-04T12:04:27.510Z,34.01
2023-04-04T12:06:55.630Z,36.33
2023-04-04T12:09:25.340Z,33.75
2023-04-04T12:11:52.190Z,35.13
2023-04-04T12:14:23.492Z,33.32
2023-04-04T12:16:52.322Z,33.61
2023-04-04T12:19:18.753Z,35.26
2023-04-04T12:21:49.906Z,33.08
2023-04-04T12:24:16.735Z,37.98
2023-04-04T12:26:46.014Z,34.13
2023-04-04T12:29:15.183Z,36.97
2023-04-04T12:31:44.208Z,32.75
2023-04-04T12:34:24.346Z,34.02
2023-04-04T12:36:55.414Z,32.42
2023-04-04T12:39:22.912Z,34.00
2023-04-04T12:41:54.111Z,35.05
2023-04-04T12:44:32.456Z,34.38
2023-04-04T12:47:15.902Z,32.81
2023-04-04T12:49:45.366Z,34.44
2023-04-04T12:52:20.651Z,33.70
2023-04-04T12:54:50.966Z,32.91
2023-04-04T12:57:24.754Z,33.70
2023-04-04T12:59:55.481Z,35.38
2023-04-04T13:02:23.386Z,35.61
2023-04-04T13:04:57.148Z,35.48
2023-04-04T13:07:29.290Z,35.68
2023-04-04T13:10:05.602Z,34.57
2023-04-04T13:12:56.779Z,34.62
2023-04-04T13:15:23.674Z,34.58
2023-04-04T13:17:51.143Z,34.11
2023-04-04T13:20:19.248Z,36.48
2023-04-04T13:22:45.594Z,36.51
2023-04-04T13:25:12.152Z,36.96
2023-04-04T13:27:38.927Z,37.13
2023-04-04T13:30:09.176Z,35.47
2023-04-04T13:32:36.683Z,35.23
2023-04-04T13:35:03.104Z,36.00
2023-04-04T13:37:29.548Z,34.90
2023-04-04T13:39:56.054Z,32.54
2023-04-04T13:42:26.844Z,33.80
2023-04-04T13:44:53.254Z,36.64
2023-04-04T13:47:22.541Z,37.60
2023-04-04T13:49:49.380Z,36.79
2023-04-04T13:52:16.293Z,37.78
2023-04-04T13:54:43.849Z,36.25
2023-04-04T13:57:10.257Z,36.72
2023-04-04T13:59:36.695Z,36.51
2023-04-04T14:02:03.903Z,37.41
2023-04-04T14:04:30.326Z,35.15
2023-04-04T14:06:56.686Z,33.83
2023-04-04T14:09:23.353Z,35.71
2023-04-04T14:11:49.731Z,35.67
2023-04-04T14:14:16.113Z,35.73
2023-04-04T14:16:42.490Z,34.91
2023-04-04T14:19:08.961Z,36.55
2023-04-04T14:21:35.526Z,35.86
2023-04-04T14:24:03.255Z,37.95
2023-04-04T14:26:29.638Z,37.31
2023-04-04T14:28:55.990Z,39.24
2023-04-04T14:31:22.553Z,36.39
2023-04-04T14:33:49.000Z,37.00
2023-04-04T14:36:15.690Z,37.41
2023-04-04T14:38:42.073Z,35.85
2023-04-04T14:41:08.462Z,36.46
2023-04-04T14:43:35.329Z,36.90
2023-04-04T14:46:02.310Z,36.08
2023-04-04T14:48:28.733Z,37.74
2023-04-04T14:50:55.110Z,37.40
2023-04-04T14:53:21.440Z,38.21
2023-04-04T14:55:47.872Z,36.72
2023-04-04T14:58:14.176Z,38.09
2023-04-04T15:00:40.609Z,37.49
2023-04-04T15:03:08.235Z,37.94
2023-04-04T15:05:34.867Z,38.46
2023-04-04T15:08:01.188Z,36.34
2023-04-04T15:10:27.515Z,36.25
2023-04-04T15:12:54.200Z,36.26
2023-04-04T15:15:23.155Z,37.63
2023-04-04T15:17:51.163Z,37.83
2023-04-04T15:20:17.804Z,36.89
2023-04-04T15:22:44.180Z,37.01
2023-04-04T15:25:10.830Z,39.56
2023-04-04T15:27:37.286Z,37.71
2023-04-04T15:30:04.038Z,39.13
2023-04-04T15:32:31.361Z,38.15
2023-04-04T15:34:58.382Z,37.10
2023-04-04T15:37:25.173Z,39.28
2023-04-04T15:39:53.957Z,39.01
2023-04-04T15:42:21.026Z,39.14
2023-04-04T15:44:47.527Z,37.23
2023-04-04T15:47:14.731Z,38.26
2023-04-04T15:49:41.042Z,39.54
2023-04-04T15:52:07.425Z,37.68
2023-04-04T15:54:33.793Z,39.04
2023-04-04T15:57:01.514Z,37.89
2023-04-04T15:59:31.460Z,38.07
2023-04-04T16:01:57.832Z,39.85
2023-04-04T16:04:24.244Z,40.75
2023-04-04T16:06:50.595Z,39.71
2023-04-04T16:09:17.023Z,40.34
2023-04-04T16:11:43.428Z,39.11
2023-04-04T16:14:10.783Z,42.02
2023-04-04T16:16:39.472Z,43.88
2023-04-04T16:19:06.016Z,43.18
2023-04-04T16:21:32.584Z,41.88
2023-04-04T16:23:59.019Z,41.13
2023-04-04T16:26:25.422Z,40.06
2023-04-04T16:28:52.912Z,42.26
2023-04-04T16:31:19.432Z,41.48
2023-04-04T16:33:45.986Z,40.34
2023-04-04T16:36:12.654Z,40.98
2023-04-04T16:38:39.024Z,41.23
2023-04-04T16:41:05.714Z,43.22
2023-04-04T16:43:32.040Z,41.92
2023-04-04T16:45:58.470Z,40.88
2023-04-04T16:48:25.024Z,42.29
2023-04-04T16:50:51.411Z,41.45
2023-04-04T16:53:17.806Z,43.77
2023-04-04T16:55:44.127Z,44.48
2023-04-04T16:58:10.477Z,42.49
2023-04-04T17:00:36.878Z,43.78
2023-04-04T17:03:03.930Z,44.10
2023-04-04T17:05:30.644Z,45.87
2023-04-04T17:07:57.045Z,46.61
2023-04-04T17:10:23.394Z,43.83
2023-04-04T17:12:50.036Z,44.58
2023-04-04T17:15:17.933Z,45.50
2023-04-04T17:17:44.764Z,45.01
2023-04-04T17:20:17.514Z,46.42
2023-04-04T17:22:45.415Z,44.69
2023-04-04T17:25:11.860Z,45.31
2023-04-04T17:27:38.214Z,46.30
2023-04-04T17:30:06.464Z,46.76
2023-04-04T17:32:33.244Z,47.49
2023-04-04T17:35:00.220Z,47.62
2023-04-04T17:37:28.481Z,48.23
2023-04-04T17:39:54.810Z,47.24
2023-04-04T17:42:21.122Z,48.77
2023-04-04T17:44:47.539Z,48.91
2023-04-04T17:47:14.190Z,50.21
2023-04-04T17:49:40.600Z,48.85
2023-04-04T17:52:06.960Z,49.37
2023-04-04T17:54:33.494Z,49.81
2023-04-04T17:57:00.141Z,49.26
2023-04-04T17:59:27.622Z,51.86
2023-04-04T18:01:54.063Z,52.31
2023-04-04T18:04:22.085Z,51.03
2023-04-04T18:06:48.409Z,53.15
2023-04-04T18:09:14.773Z,53.60
2023-04-04T18:11:41.799Z,54.51
2023-04-04T18:14:08.648Z,54.97
2023-04-04T18:16:39.802Z,52.40
2023-04-04T18:19:07.373Z,53.95
2023-04-04T18:21:33.734Z,53.86
2023-04-04T18:24:00.141Z,53.42
2023-04-04T18:26:26.472Z,54.11
2023-04-04T18:28:52.783Z,54.08
2023-04-04T18:31:19.225Z,54.31
2023-04-04T18:33:46.318Z,55.09
2023-04-04T18:36:12.754Z,54.83
2023-04-04T18:38:39.176Z,54.54
2023-04-04T18:41:05.711Z,54.11
2023-04-04T18:43:32.230Z,55.79
2023-04-04T18:45:59.543Z,55.66
2023-04-04T18:48:26.033Z,56.05
2023-04-04T18:50:52.379Z,55.76
2023-04-04T18:53:18.866Z,55.58
2023-04-04T18:55:46.099Z,56.11
2023-04-04T18:58:12.456Z,56.03
2023-04-04T19:00:39.092Z,56.33
2023-04-04T19:03:07.513Z,55.62
2023-04-04T19:05:36.946Z,55.50
2023-04-04T19:08:06.811Z,55.21
2023-04-04T19:10:34.249Z,55.33
2023-04-04T19:13:01.300Z,55.31
2023-04-04T19:15:27.655Z,55.43
2023-04-04T19:17:54.077Z,56.12
2023-04-04T19:20:20.934Z,56.90
2023-04-04T19:22:47.242Z,56.09
2023-04-04T19:25:13.720Z,56.48
2023-04-04T19:27:40.294Z,57.95
2023-04-04T19:30:33.344Z,57.94
2023-04-04T19:32:59.831Z,58.31
2023-04-04T19:35:48.590Z,58.49
2023-04-04T19:38:25.310Z,58.54
2023-04-04T19:41:00.904Z,58.68
2023-04-04T19:43:28.968Z,59.54
2023-04-04T19:45:58.276Z,59.36
2023-04-04T19:48:50.459Z,61.41
2023-04-04T19:51:16.781Z,61.90
2023-04-04T19:53:45.093Z,61.19
2023-04-04T19:56:12.445Z,60.95
2023-04-04T19:58:39.540Z,61.38
2023-04-04T20:01:07.233Z,61.56
2023-04-04T20:03:36.865Z,61.44
2023-04-04T20:06:12.197Z,61.86
2023-04-04T20:08:46.586Z,60.88
2023-04-04T20:11:13.338Z,62.62
2023-04-04T20:13:40.732Z,64.75
2023-04-04T20:16:12.557Z,62.79
2023-04-04T20:18:41.201Z,64.00
2023-04-04T20:21:11.110Z,65.60
2023-04-04T20:24:10.242Z,66.38
2023-04-04T20:26:54.954Z,63.32
2023-04-04T20:29:27.335Z,63.62
2023-04-04T20:32:14.015Z,61.93
2023-04-04T20:34:45.878Z,62.03
2023-04-04T20:37:19.572Z,63.01
2023-04-04T20:39:56.121Z,62.57
2023-04-04T20:42:30.969Z,62.68
2023-04-04T20:45:20.646Z,63.68
2023-04-04T20:48:00.584Z,63.93
2023-04-04T20:50:27.240Z,64.07
2023-04-04T20:52:59.196Z,63.74
2023-04-04T20:55:30.363Z,64.39
2023-04-04T20:58:02.494Z,64.61
2023-04-04T21:00:33.332Z,65.21
2023-04-04T21:03:01.682Z,66.93
2023-04-04T21:05:33.960Z,68.35
2023-04-04T21:08:02.196Z,66.97
2023-04-04T21:10:28.489Z,68.19
2023-04-04T21:12:57.142Z,68.05
2023-04-04T21:15:29.652Z,69.82
2023-04-04T21:17:59.110Z,69.85
2023-04-04T21:20:47.334Z,68.16
2023-04-04T21:23:26.033Z,70.15
2023-04-04T21:26:03.655Z,69.91
2023-04-04T21:28:33.037Z,69.90
2023-04-04T21:31:00.451Z,68.96
2023-04-04T21:33:26.905Z,69.85
2023-04-04T21:35:55.935Z,70.32
2023-04-04T21:38:33.034Z,72.17
2023-04-04T21:41:16.864Z,69.77
2023-04-04T21:43:43.186Z,68.96
2023-04-04T21:46:10.666Z,72.49
2023-04-04T21:48:37.009Z,74.71
2023-04-04T21:51:03.412Z,70.42
2023-04-04T21:53:29.743Z,72.15
2023-04-04T21:55:56.153Z,72.15
2023-04-04T21:58:22.479Z,75.31
2023-04-04T22:00:48.946Z,75.32
2023-04-04T22:03:16.113Z,75.15
2023-04-04T22:05:42.706Z,73.48
2023-04-04T22:08:09.131Z,74.73
2023-04-04T22:10:38.974Z,72.28
2023-04-04T22:13:05.455Z,74.22
2023-04-04T22:15:31.793Z,76.15
2023-04-04T22:18:04.115Z,75.38
2023-04-04T22:20:33.618Z,75.24
2023-04-04T22:22:59.963Z,75.95
2023-04-04T22:25:27.129Z,78.31
2023-04-04T22:27:53.716Z,75.49
2023-04-04T22:30:21.492Z,75.24
2023-04-04T22:32:47.870Z,75.11
2023-04-04T22:35:14.339Z,73.91
2023-04-04T22:37:41.212Z,73.48
2023-04-04T22:40:11.517Z,74.60
2023-04-04T22:42:37.990Z,73.83
2023-04-04T22:45:05.073Z,73.32
2023-04-04T22:47:31.421Z,73.04
2023-04-04T22:49:58.410Z,74.83
2023-04-04T22:52:26.407Z,75.93
2023-04-04T22:54:53.124Z,76.99
2023-04-04T22:57:19.481Z,76.95
2023-04-04T22:59:45.807Z,75.80
2023-04-04T23:02:12.207Z,76.84
2023-04-04T23:04:38.654Z,79.47
2023-04-04T23:07:05.170Z,81.61
2023-04-04T23:09:31.492Z,82.57
2023-04-04T23:11:57.966Z,82.22
2023-04-04T23:14:24.324Z,81.68
2023-04-04T23:16:52.557Z,81.14
2023-04-04T23:19:18.988Z,81.67
2023-04-04T23:21:45.440Z,80.01
2023-04-04T23:24:11.829Z,84.39
2023-04-04T23:26:38.241Z,79.79
2023-04-04T23:29:05.543Z,78.76
2023-04-04T23:31:32.056Z,81.60
2023-04-04T23:33:58.520Z,82.26
2023-04-04T23:36:25.069Z,83.64
2023-04-04T23:38:51.510Z,83.84
2023-04-04T23:41:18.298Z,83.97
2023-04-04T23:43:45.926Z,83.26
2023-04-04T23:46:14.215Z,83.12
2023-04-04T23:48:41.896Z,79.36
2023-04-04T23:51:08.864Z,83.20
2023-04-04T23:53:35.463Z,80.78
2023-04-04T23:56:03.229Z,82.11
2023-04-04T23:58:29.527Z,81.26
